This is the latest recevied weather packets stored in our database for station/object K7SFN. If no packets are shown the sender has not sent any weather packets the latest 10 day(s).
| Time | Temp. | Humidity | Pressure | Rain* | Wind** | Luminosity | Snow |
|---|---|---|---|---|---|---|---|
| 1777069804 | 18.89° C | 34% | 1009.6 hPa | 0 mm | - | - | - |
| 1777068904 | 18.89° C | 32% | 1010 hPa | 0 mm | - | - | - |
| 1777068303 | 19.44° C | 32% | 1010.1 hPa | 0 mm | - | - | - |
| 1777065603 | 20° C | 25% | 1010.6 hPa | 0 mm | - | - | - |
| 1777064104 | 18.89° C | 24% | 1010.7 hPa | 0 mm | - | - | - |
| 1777061404 | 18.89° C | 25% | 1010.9 hPa | 0 mm | - | - | - |
| 1777059904 | 17.22° C | 27% | 1011.2 hPa | 0 mm | - | - | - |
| 1777058104 | 17.22° C | 26% | 1011.5 hPa | 0 mm | - | - | - |
| 1777056303 | 17.22° C | 26% | 1012 hPa | 0 mm | - | - | - |
| 1777051204 | 15.56° C | 31% | 1012.7 hPa | 0 mm | - | - | - |
| 1777050904 | 15.56° C | 30% | 1012.9 hPa | 0 mm | - | - | - |
| 1777050604 | 15.56° C | 31% | 1012.9 hPa | 0 mm | - | - | - |
| 1777050304 | 15° C | 34% | 1013 hPa | 0 mm | - | - | - |
| 1777041304 | 4.44° C | 64% | 1014.6 hPa | 0 mm | - | - | - |
| 1777040704 | 3.89° C | 66% | 1014.8 hPa | 0 mm | - | - | - |
| 1777037104 | 1.11° C | 72% | 1014.5 hPa | 0 mm | - | - | - |
| 1777035304 | 1.11° C | 72% | 1014.4 hPa | 0 mm | - | - | - |
| 1777031105 | 0.56° C | 73% | 1014.8 hPa | 0 mm | - | - | - |
| 1777028104 | 1.67° C | 68% | 1014.9 hPa | 0 mm | - | - | - |
| 1777027505 | 1.11° C | 70% | 1014.9 hPa | 0 mm | - | - | - |
| 1777026904 | 0.56° C | 70% | 1015 hPa | 0 mm | - | - | - |
| 1777022704 | 1.67° C | 67% | 1015.2 hPa | 0 mm | - | - | - |
| 1777022404 | 1.67° C | 67% | 1015.2 hPa | 0 mm | - | - | - |
| 1777021804 | 1.67° C | 67% | 1015.5 hPa | 0 mm | - | - | - |
| 1777020905 | 1.67° C | 67% | 1015.6 hPa | 0 mm | - | - | - |
* Rain latest hour (hover to see other rain measurements)
** Current wind speed in m/s (hover to see current wind gust speed)